• Join FlightAware (Why Join?)
  • Login
  • US Flag 
01:55AM EDT


 

Airport Tracker/Info


-or-


 

Live Flight TrackerFlight Track Log ✈ SKW5646 ✈ 01-May-2013 ✈ KSBA - KSFO

Flight Track Log - Related Links

Times and Time Zones

All times are in EDT time to prevent confusion due to time zone crossing. See the SKW5646 flight status page for this flight to view local times or setup timezone preferences in your user account.

Time Position Orientation Groundspeed Altitude Reporting Facility
EDT Latitude Longitude Course Direction KTS MPH feet Rate Location/Type
03:37PM 34.4269 -119.8722 275° West 134 154 1,000  Level Los Angeles Center
03:38PM 34.4258 -119.9278 269° West 177 204 2,300 1,200 Climbing Los Angeles Center
03:39PM 34.4194 -119.9997 264° West 197 227 3,500 1,260 Climbing Los Angeles Center
03:40PM 34.4158 -120.0722 267° West 213 245 5,000 1,440 Climbing Los Angeles Center
03:41PM 34.5698 -120.1365 321° Northwest  Level FlightAware Approximate
03:41PM 34.4144 -120.1464 269° West 217 250 6,500  Level Los Angeles Center
03:42PM 34.6302 -120.1893 328° Northwest  Level FlightAware Approximate
03:42PM 34.4139 -120.2347 270° West 218 251 8,500  Level Los Angeles Center
03:43PM 34.4456 -120.2858 307° West 216 249 10,000 1,260 Climbing Los Angeles Center
03:44PM 34.4947 -120.3200 330° Northwest 204 235 11,400 1,200 Climbing Los Angeles Center
03:45PM 34.5497 -120.3619 328° Northwest 195 224 12,800 720 Climbing Los Angeles Center
03:46PM 34.6022 -120.4006 329° Northwest 198 228 13,000 720 Climbing Los Angeles Center
03:47PM 34.6458 -120.4353 327° Northwest 209 241 14,400 1,140 Climbing Los Angeles Center
03:48PM 34.7078 -120.4850 327° Northwest 221 254 15,400 840 Climbing Los Angeles Center
03:49PM 34.7614 -120.5256 328° Northwest 225 259 16,200 780 Climbing Los Angeles Center
03:50PM 34.8150 -120.5672 327° Northwest 227 261 17,100 840 Climbing Los Angeles Center
03:51PM 34.8722 -120.6106 328° Northwest 229 264 18,000 840 Climbing Los Angeles Center
03:52PM 34.9247 -120.6519 327° Northwest 226 260 18,900 780 Climbing Los Angeles Center
03:53PM 34.9761 -120.6919 327° Northwest 221 254 19,700 600 Climbing Los Angeles Center
03:54PM 35.0300 -120.7336 328° Northwest 227 261 20,200 480 Climbing Los Angeles Center
03:55PM 35.0964 -120.7853 328° Northwest 235 270 20,800 480 Climbing Los Angeles Center
03:57PM 35.1547 -120.8294 328° Northwest 244 281 21,300 480 Climbing Los Angeles Center
03:58PM 35.2231 -120.8817 328° Northwest 240 276 21,900 300 Climbing Los Angeles Center
03:59PM 35.2803 -120.9300 325° Northwest 248 285 22,000  Climbing Los Angeles Center
04:00PM 35.3425 -120.9797 327° Northwest 260 299 22,000  Level Los Angeles Center
04:01PM 35.4175 -121.0375 328° Northwest 269 310 22,000  Level Oakland Center
04:02PM 35.4797 -121.0875 327° Northwest 269 310 22,000  Level Oakland Center
04:03PM 35.5414 -121.1381 326° Northwest 267 307 22,000  Level Oakland Center
04:04PM 35.6028 -121.1861 328° Northwest 265 305 22,000  Level Oakland Center
04:05PM 35.6653 -121.2350 328° Northwest 266 306 22,000  Level Oakland Center
04:06PM 35.7281 -121.2833 328° Northwest 273 314 22,000  Level Oakland Center
04:07PM 35.7900 -121.3331 327° Northwest 273 314 22,000  Level Oakland Center
04:08PM 35.8508 -121.3839 326° Northwest 271 312 22,000  Level Oakland Center
04:09PM 35.9244 -121.4422 327° Northwest 264 304 22,000  Level Oakland Center
04:10PM 35.9850 -121.4919 326° Northwest 263 303 22,000  Level Oakland Center
04:11PM 36.0492 -121.5381 330° Northwest 269 310 22,000 -420 Level Oakland Center
04:12PM 36.1117 -121.5881 327° Northwest 275 316 21,200 -840 Descending Oakland Center
04:13PM 36.1792 -121.6422 327° Northwest 292 336 20,400 -660 Descending Oakland Center
04:14PM 36.2522 -121.6831 336° Northwest 291 335 19,900 -660 Descending Oakland Center
04:15PM 36.3311 -121.7172 341° North 299 344 19,100 -840 Descending Oakland Center
04:16PM 36.4167 -121.7667 335° Northwest 293 337 18,300 -900 Descending Northern Cal TRACON
04:17PM 36.4833 -121.8000 338° Northwest 299 344 17,500 -1,020 Descending Northern Cal TRACON
04:18PM 36.5667 -121.8500 334° Northwest 304 350 16,400 -1,080 Descending Northern Cal TRACON
04:19PM 36.6333 -121.8833 338° Northwest 297 342 15,400 -1,020 Descending Northern Cal TRACON
04:20PM 36.7167 -121.9167 342° North 293 337 14,400 -1,020 Descending Northern Cal TRACON
04:21PM 36.7833 -121.9667 329° Northwest 288 331 13,400 -1,020 Descending Northern Cal TRACON
04:22PM 36.8667 -122.0000 342° North 286 329 12,400 -1,020 Descending Northern Cal TRACON
04:23PM 36.9167 -122.0333 332° Northwest 288 331 11,500 -960 Descending Northern Cal TRACON
04:23PM 36.9456 -122.0444 343° North 287 330 11,200 -840 Descending Oakland Center
04:24PM 37.0161 -122.0819 337° Northwest 277 319 10,400 -900 Descending Oakland Center
04:25PM 37.0847 -122.1186 337° Northwest 269 310 9,400 -1,020 Descending Oakland Center
04:26PM 37.1539 -122.1542 338° Northwest 270 311 8,400 -1,020 Descending Oakland Center
04:28PM 37.2667 -122.2167 336° Northwest 263 303 6,700 -1,020 Descending Northern Cal TRACON
04:28PM 37.2883 -122.2231 347° North 260 299 6,400 -600 Descending Oakland Center
04:29PM 37.3675 -122.2147 North 246 283 5,900 -720 Descending Oakland Center
04:31PM 37.4344 -122.1917 15° North 249 287 5,000 -840 Descending Oakland Center
04:32PM 37.4942 -122.1689 17° North 234 269 4,200 -960 Descending Oakland Center
04:33PM 37.5344 -122.2022 327° Northwest 210 242 3,100 -1,080 Descending Oakland Center
04:34PM 37.5656 -122.2564 306° West 198 228 2,100 -1,020 Descending Oakland Center